Nypd452 — WDH6530 — position and weather

sailwx.info

Track history (hours):
 
Tides and Currents Weather Stations Pressure Air Temp Water Temp Dewpoint Dewpoint Depression Visibility Wind Speed Wind Dir Waves Ship Positions

Nypd452

Owner: New York City Police Department, Brooklyn, NY. More information available from US FCC via Universal Licensing System.

Last reported at 2017-Sep-27 00:47 UTC. Time now 2017-Dec-15 00:55 UTC.
Position N 40°39' W 074°02'.
Warning: this ship's position is months out of date.

Type: Law enforcement. MMSI: 367638490.

Date/timePositionNaut miles runAvg speedWind from/ knotsBaromVisibWave heightAir tempDewpointWater temp
2017-Sep-27 00:47N 40°39' W 074°02'311.5
2017-Sep-27 00:30N 40°42' W 074°01'0 0.3
2017-Sep-27 00:01N 40°42' W 074°01'1 1.5
2017-Sep-26 23:31N 40°42' W 074°00'0 0.3
2017-Sep-26 23:01N 40°42' W 073°60'0 0.8
2017-Sep-26 22:30N 40°43' W 073°60'0 0.2
2017-Sep-26 22:00N 40°43' W 073°60'1 2.3
2017-Sep-26 21:30N 40°43' W 074°01'0 0.0
2017-Sep-26 21:00N 40°43' W 074°01'1 1.8
2017-Sep-26 20:31N 40°42' W 074°01'0 0.4
2017-Sep-26 20:00N 40°42' W 074°01'0 0.2
2017-Sep-26 19:31N 40°42' W 074°01'3 5.4
2017-Sep-26 19:01N 40°39' W 074°02'  
2017-Sep-24 02:12N 40°39' W 074°02'0 0.0
2017-Sep-24 02:00N 40°39' W 074°02'510.7
2017-Sep-24 01:30N 40°34' W 073°58'4 8.1
2017-Sep-24 01:00N 40°34' W 073°53'0 0.0
2017-Sep-24 00:05N 40°34' W 073°53'0 0.0
2017-Sep-23 23:54N 40°34' W 073°53'5 2.0
2017-Sep-23 21:24N 40°34' W 073°60'614.2
2017-Sep-23 21:01N 40°40' W 074°01'3 6.4
2017-Sep-23 20:31N 40°43' W 074°01'0 0.0
2017-Sep-23 20:01N 40°43' W 074°01'4 0.1
2017-Sep-21 22:37N 40°39' W 074°02'0 0.8
2017-Sep-21 22:30N 40°39' W 074°02'1 1.3
2017-Sep-21 22:00N 40°39' W 074°02'0 0.7
2017-Sep-21 21:31N 40°40' W 074°02'1 1.3
2017-Sep-21 21:00N 40°40' W 074°02'2 3.4
2017-Sep-21 20:31N 40°42' W 074°01'0 0.3
2017-Sep-21 20:00N 40°42' W 074°01'0 0.1
2017-Sep-21 19:30N 40°42' W 074°01'0 0.3
2017-Sep-21 19:00N 40°42' W 074°01'0 0.3
2017-Sep-21 18:30N 40°42' W 074°01'3 6.8
2017-Sep-21 18:00N 40°39' W 074°02'0 0.0
2017-Sep-21 17:30N 40°39' W 074°02'0 0.0
2017-Sep-21 17:00N 40°39' W 074°02'  
2017-Sep-18 18:52N 40°40' W 074°02'616.6
2017-Sep-18 18:30N 40°45' W 073°58'0 0.0
2017-Sep-18 18:00N 40°45' W 073°58'0 0.1
2017-Sep-18 17:30N 40°45' W 073°58'0 0.1
2017-Sep-18 17:00N 40°45' W 073°58'0 0.1
2017-Sep-18 16:30N 40°45' W 073°58'0 0.2
2017-Sep-18 16:00N 40°45' W 073°58'0 0.0
2017-Sep-18 15:30N 40°45' W 073°58'0 0.2
2017-Sep-18 15:00N 40°45' W 073°58'0 0.1
2017-Sep-18 14:30N 40°45' W 073°58'0 0.3
2017-Sep-18 14:00N 40°45' W 073°58'0 0.3
2017-Sep-18 13:30N 40°45' W 073°58'0 0.1
2017-Sep-18 13:00N 40°45' W 073°58'0 0.1
2017-Sep-18 12:30N 40°45' W 073°58'0 0.0
2017-Sep-18 12:00N 40°45' W 073°58'0 0.1
2017-Sep-18 11:30N 40°45' W 073°58'0 0.2
2017-Sep-18 11:00N 40°45' W 073°58'1 1.1
2017-Sep-18 10:30N 40°45' W 073°58'6 0.4
2017-Sep-17 18:42N 40°39' W 074°02'0 0.1
2017-Sep-17 18:30N 40°39' W 074°02'5 9.8
2017-Sep-17 18:01N 40°44' W 074°01'611.3
2017-Sep-17 17:30N 40°49' W 073°59'4 7.9
2017-Sep-17 17:00N 40°52' W 073°56'0 0.9
2017-Sep-17 16:29N 40°53' W 073°56'2 3.8
2017-Sep-17 15:59N 40°55' W 073°55'1 0.7
2017-Sep-17 14:34N 40°54' W 073°56'116.1
2017-Sep-17 14:30N 40°52' W 073°56'816.3
2017-Sep-17 14:00N 40°45' W 074°01'612.8
2017-Sep-17 13:30N 40°39' W 074°02'0 0.5
2017-Sep-17 13:00N 40°39' W 074°02'0 0.0
2017-Sep-17 12:30N 40°39' W 074°02'  
Track history (hours):
 
Tides and Currents Weather Stations Pressure Air Temp Water Temp Dewpoint Dewpoint Depression Visibility Wind Speed Wind Dir Waves Ship Positions

Nypd452

Owner: New York City Police Department, Brooklyn, NY. More information available from US FCC via Universal Licensing System.

Last reported at 2017-Sep-27 00:47 UTC. Time now 2017-Dec-15 00:55 UTC.
Position N 40°39' W 074°02'.
Warning: this ship's position is months out of date.

Type: Law enforcement. MMSI: 367638490.

Date/timePositionNaut miles runAvg speedWind from/ knotsBaromVisibWave heightAir tempDewpointWater temp
2017-Sep-27 00:47N 40°39' W 074°02'311.5
2017-Sep-27 00:30N 40°42' W 074°01'0 0.3
2017-Sep-27 00:01N 40°42' W 074°01'1 1.5
2017-Sep-26 23:31N 40°42' W 074°00'0 0.3
2017-Sep-26 23:01N 40°42' W 073°60'0 0.8
2017-Sep-26 22:30N 40°43' W 073°60'0 0.2
2017-Sep-26 22:00N 40°43' W 073°60'1 2.3
2017-Sep-26 21:30N 40°43' W 074°01'0 0.0
2017-Sep-26 21:00N 40°43' W 074°01'1 1.8
2017-Sep-26 20:31N 40°42' W 074°01'0 0.4
2017-Sep-26 20:00N 40°42' W 074°01'0 0.2
2017-Sep-26 19:31N 40°42' W 074°01'3 5.4
2017-Sep-26 19:01N 40°39' W 074°02'  
2017-Sep-24 02:12N 40°39' W 074°02'0 0.0
2017-Sep-24 02:00N 40°39' W 074°02'510.7
2017-Sep-24 01:30N 40°34' W 073°58'4 8.1
2017-Sep-24 01:00N 40°34' W 073°53'0 0.0
2017-Sep-24 00:05N 40°34' W 073°53'0 0.0
2017-Sep-23 23:54N 40°34' W 073°53'5 2.0
2017-Sep-23 21:24N 40°34' W 073°60'614.2
2017-Sep-23 21:01N 40°40' W 074°01'3 6.4
2017-Sep-23 20:31N 40°43' W 074°01'0 0.0
2017-Sep-23 20:01N 40°43' W 074°01'4 0.1
2017-Sep-21 22:37N 40°39' W 074°02'0 0.8
2017-Sep-21 22:30N 40°39' W 074°02'1 1.3
2017-Sep-21 22:00N 40°39' W 074°02'0 0.7
2017-Sep-21 21:31N 40°40' W 074°02'1 1.3
2017-Sep-21 21:00N 40°40' W 074°02'2 3.4
2017-Sep-21 20:31N 40°42' W 074°01'0 0.3
2017-Sep-21 20:00N 40°42' W 074°01'0 0.1
2017-Sep-21 19:30N 40°42' W 074°01'0 0.3
2017-Sep-21 19:00N 40°42' W 074°01'0 0.3
2017-Sep-21 18:30N 40°42' W 074°01'3 6.8
2017-Sep-21 18:00N 40°39' W 074°02'0 0.0
2017-Sep-21 17:30N 40°39' W 074°02'0 0.0
2017-Sep-21 17:00N 40°39' W 074°02'  
2017-Sep-18 18:52N 40°40' W 074°02'616.6
2017-Sep-18 18:30N 40°45' W 073°58'0 0.0
2017-Sep-18 18:00N 40°45' W 073°58'0 0.1
2017-Sep-18 17:30N 40°45' W 073°58'0 0.1
2017-Sep-18 17:00N 40°45' W 073°58'0 0.1
2017-Sep-18 16:30N 40°45' W 073°58'0 0.2
2017-Sep-18 16:00N 40°45' W 073°58'0 0.0
2017-Sep-18 15:30N 40°45' W 073°58'0 0.2
2017-Sep-18 15:00N 40°45' W 073°58'0 0.1
2017-Sep-18 14:30N 40°45' W 073°58'0 0.3
2017-Sep-18 14:00N 40°45' W 073°58'0 0.3
2017-Sep-18 13:30N 40°45' W 073°58'0 0.1
2017-Sep-18 13:00N 40°45' W 073°58'0 0.1
2017-Sep-18 12:30N 40°45' W 073°58'0 0.0
2017-Sep-18 12:00N 40°45' W 073°58'0 0.1
2017-Sep-18 11:30N 40°45' W 073°58'0 0.2
2017-Sep-18 11:00N 40°45' W 073°58'1 1.1
2017-Sep-18 10:30N 40°45' W 073°58'6 0.4
2017-Sep-17 18:42N 40°39' W 074°02'0 0.1
2017-Sep-17 18:30N 40°39' W 074°02'5 9.8
2017-Sep-17 18:01N 40°44' W 074°01'611.3
2017-Sep-17 17:30N 40°49' W 073°59'4 7.9
2017-Sep-17 17:00N 40°52' W 073°56'0 0.9
2017-Sep-17 16:29N 40°53' W 073°56'2 3.8
2017-Sep-17 15:59N 40°55' W 073°55'1 0.7
2017-Sep-17 14:34N 40°54' W 073°56'116.1
2017-Sep-17 14:30N 40°52' W 073°56'816.3
2017-Sep-17 14:00N 40°45' W 074°01'612.8
2017-Sep-17 13:30N 40°39' W 074°02'0 0.5
2017-Sep-17 13:00N 40°39' W 074°02'0 0.0
2017-Sep-17 12:30N 40°39' W 074°02'  

Dump ship's entire track history